CheckWX is a tool to help pilots better visualize weather data.  It is not intended as a substitute for an official pre-flight weather briefing.

21:36:39 UTC

GOBD TAF
Blaise Diagne International Airport
Dakar, Senegal
TAF GOBD 201730Z 2018/2124 36014KT CAVOK

Mar-20@
18:00 UTC

Mar-20 @ 18:00 UTC

Mar-22@
00:00 UTC

Mar-22 @ 00:00 UTC

TAF GOBD 201730Z 2018/2124 36014KT CAVOK
Wind
  • 360° at 14 KTS
Conditions
No significant weather
Cloud Levels
  • No significant clouds